createdAt,value
2018-04-30T00:01:28.486Z,22.30
2018-04-30T00:03:29.479Z,21.93
2018-04-30T00:05:30.494Z,23.87
2018-04-30T00:07:31.494Z,22.27
2018-04-30T00:09:33.864Z,21.20
2018-04-30T00:11:34.914Z,22.27
2018-04-30T00:13:36.133Z,22.93
2018-04-30T00:15:37.132Z,22.30
2018-04-30T00:17:38.230Z,22.50
2018-04-30T00:19:39.835Z,24.10
2018-04-30T00:21:41.068Z,23.27
2018-04-30T00:23:42.336Z,21.90
2018-04-30T00:25:43.858Z,22.93
2018-04-30T00:27:44.875Z,22.47
2018-04-30T00:29:45.875Z,21.90
2018-04-30T00:31:47.206Z,20.63
2018-04-30T00:33:48.663Z,20.90
2018-04-30T00:35:50.029Z,22.40
2018-04-30T00:37:51.159Z,23.07
2018-04-30T00:39:52.286Z,20.20
2018-04-30T00:41:53.298Z,26.67
2018-04-30T00:43:54.465Z,23.70
2018-04-30T00:45:55.654Z,27.33
2018-04-30T00:47:57.009Z,28.07
2018-04-30T00:49:58.399Z,21.93
2018-04-30T00:51:59.439Z,22.47
2018-04-30T00:54:00.826Z,21.43
2018-04-30T00:56:02.262Z,22.33
2018-04-30T00:58:03.239Z,20.20
2018-04-30T01:00:04.615Z,20.00
2018-04-30T01:02:05.603Z,19.27
2018-04-30T01:04:06.958Z,23.10
2018-04-30T01:06:08.305Z,20.80
2018-04-30T01:08:09.662Z,20.80
2018-04-30T01:10:10.644Z,21.80
2018-04-30T01:12:12.462Z,21.83
2018-04-30T01:14:13.457Z,20.80
2018-04-30T01:16:14.418Z,22.57
2018-04-30T01:18:15.755Z,20.47
2018-04-30T01:20:17.139Z,21.20
2018-04-30T01:22:18.109Z,21.23
2018-04-30T01:24:26.155Z,21.33
2018-04-30T01:26:27.146Z,21.47
2018-04-30T01:28:28.123Z,20.87
2018-04-30T01:30:29.551Z,21.50
2018-04-30T01:32:31.366Z,21.70
2018-04-30T01:34:32.331Z,20.27
2018-04-30T01:36:33.658Z,21.13
2018-04-30T01:38:34.637Z,21.27
2018-04-30T01:40:35.615Z,21.67
2018-04-30T01:42:36.598Z,22.53
2018-04-30T01:44:37.611Z,20.10
2018-04-30T01:46:38.949Z,20.60
2018-04-30T01:48:40.147Z,19.40
2018-04-30T01:50:48.123Z,20.70
2018-04-30T01:52:49.099Z,21.80
2018-04-30T01:54:50.062Z,21.87
2018-04-30T01:56:51.541Z,23.00
2018-04-30T01:58:52.499Z,26.10
2018-04-30T02:00:53.466Z,20.17
2018-04-30T02:02:54.454Z,21.13
2018-04-30T02:04:55.434Z,19.90
2018-04-30T02:06:56.427Z,20.70
2018-04-30T02:08:57.394Z,19.87
2018-04-30T02:10:58.374Z,19.47
2018-04-30T02:12:59.375Z,20.00
2018-04-30T02:15:00.389Z,19.93
2018-04-30T02:17:01.364Z,19.57
2018-04-30T02:19:02.823Z,18.97
2018-04-30T02:21:03.805Z,19.17
2018-04-30T02:23:05.418Z,19.97
2018-04-30T02:25:06.443Z,19.50
2018-04-30T02:27:07.419Z,19.97
2018-04-30T02:29:08.420Z,20.53
2018-04-30T02:31:09.430Z,19.47
2018-04-30T02:33:10.790Z,19.67
2018-04-30T02:35:11.771Z,18.40
2018-04-30T02:37:12.849Z,19.47
2018-04-30T02:39:14.231Z,18.90
2018-04-30T02:41:15.232Z,19.43
2018-04-30T02:43:16.594Z,20.47
2018-04-30T02:45:17.575Z,18.57
2018-04-30T02:47:18.578Z,18.83
2018-04-30T02:49:19.650Z,18.13
2018-04-30T02:51:20.631Z,19.03
2018-04-30T02:53:21.615Z,18.57
2018-04-30T02:55:22.586Z,16.90
2018-04-30T02:57:23.929Z,19.97
2018-04-30T02:59:25.293Z,18.47
2018-04-30T03:01:26.286Z,19.67
2018-04-30T03:03:27.256Z,19.00
2018-04-30T03:05:28.223Z,19.17
2018-04-30T03:07:29.219Z,18.33
2018-04-30T03:09:30.202Z,18.37
2018-04-30T03:11:31.206Z,18.90
2018-04-30T03:13:39.231Z,18.20
2018-04-30T03:15:40.206Z,17.77
2018-04-30T03:17:41.566Z,19.37
2018-04-30T03:19:42.562Z,18.07
2018-04-30T03:21:43.545Z,18.67
2018-04-30T03:23:44.572Z,19.70
2018-04-30T03:25:45.566Z,18.13
2018-04-30T03:27:46.544Z,18.80
2018-04-30T03:29:48.026Z,20.90
2018-04-30T03:31:49.031Z,19.60
2018-04-30T03:33:50.030Z,18.77
2018-04-30T03:35:51.017Z,18.30
2018-04-30T03:37:51.987Z,18.87
2018-04-30T03:39:52.967Z,18.73
2018-04-30T03:41:54.077Z,17.27
2018-04-30T03:43:55.060Z,19.20
2018-04-30T03:45:56.031Z,19.90
2018-04-30T03:47:57.022Z,18.47
2018-04-30T03:49:58.036Z,19.63
2018-04-30T03:51:59.382Z,21.03
2018-04-30T03:54:00.368Z,19.60
2018-04-30T03:56:01.338Z,18.93
2018-04-30T03:58:02.670Z,18.10
2018-04-30T04:00:03.659Z,19.97
2018-04-30T04:02:17.095Z,19.77
2018-04-30T04:04:30.529Z,18.93
2018-04-30T04:06:36.482Z,19.13
2018-04-30T04:08:37.435Z,19.87
2018-04-30T04:10:38.409Z,18.93
2018-04-30T04:12:39.442Z,18.70
2018-04-30T04:14:40.375Z,18.87
2018-04-30T04:16:41.767Z,20.70
2018-04-30T04:18:42.768Z,19.00
2018-04-30T04:20:43.782Z,19.00
2018-04-30T04:22:45.130Z,18.37
2018-04-30T04:24:46.119Z,21.50
2018-04-30T04:26:47.104Z,20.13
2018-04-30T04:28:48.082Z,18.73
2018-04-30T04:30:49.071Z,18.87
2018-04-30T04:32:50.399Z,18.93
2018-04-30T04:34:51.736Z,18.97
2018-04-30T04:36:53.369Z,19.50
2018-04-30T04:38:54.335Z,19.07
2018-04-30T04:40:55.690Z,20.07
2018-04-30T04:42:56.674Z,20.97
2018-04-30T04:44:57.639Z,21.53
2018-04-30T04:46:58.995Z,19.30
2018-04-30T04:48:59.986Z,17.80
2018-04-30T04:51:00.950Z,19.73
2018-04-30T04:53:02.296Z,17.83
2018-04-30T04:55:03.650Z,19.13
2018-04-30T04:57:04.644Z,19.80
2018-04-30T04:59:05.645Z,18.77
2018-04-30T05:01:06.625Z,18.10
2018-04-30T05:03:07.610Z,19.53
2018-04-30T05:05:08.578Z,19.20
2018-04-30T05:07:09.830Z,20.83
2018-04-30T05:09:10.831Z,21.10
2018-04-30T05:11:11.810Z,20.53
2018-04-30T05:13:12.799Z,20.20
2018-04-30T05:15:13.777Z,19.30
2018-04-30T05:17:14.770Z,20.10
2018-04-30T05:19:15.761Z,23.97
2018-04-30T05:21:17.118Z,20.10
2018-04-30T05:23:18.143Z,22.80
2018-04-30T05:25:19.511Z,21.27
2018-04-30T05:27:20.475Z,19.60
2018-04-30T05:31:29.246Z,19.40
2018-04-30T05:33:30.657Z,19.23
2018-04-30T05:35:31.660Z,19.03
2018-04-30T05:37:32.629Z,18.10
2018-04-30T05:39:33.643Z,19.53
2018-04-30T05:41:34.636Z,20.10
2018-04-30T05:43:35.994Z,18.67
2018-04-30T05:45:36.986Z,18.23
2018-04-30T05:47:37.949Z,20.50
2018-04-30T05:49:39.300Z,17.77
2018-04-30T05:51:40.667Z,18.63
2018-04-30T05:53:41.639Z,18.63
2018-04-30T05:55:42.615Z,18.30
2018-04-30T05:57:43.955Z,18.50
2018-04-30T05:59:45.296Z,34.37
2018-04-30T06:01:46.441Z,19.40
2018-04-30T06:03:47.788Z,18.03
2018-04-30T06:05:48.790Z,18.77
2018-04-30T06:07:49.970Z,18.10
2018-04-30T06:09:50.949Z,17.10
2018-04-30T06:11:52.743Z,17.23
2018-04-30T06:13:54.087Z,17.67
2018-04-30T06:15:55.442Z,19.10
2018-04-30T06:17:56.405Z,17.50
2018-04-30T06:19:57.370Z,18.73
2018-04-30T06:21:58.350Z,17.10
2018-04-30T06:23:59.388Z,18.67
2018-04-30T06:26:00.391Z,18.17
2018-04-30T06:28:01.369Z,18.33
2018-04-30T06:30:02.518Z,19.37
2018-04-30T06:32:03.497Z,23.80
2018-04-30T06:34:04.466Z,18.10
2018-04-30T06:36:05.491Z,18.20
2018-04-30T06:38:06.499Z,18.93
2018-04-30T06:40:07.489Z,18.40
2018-04-30T06:42:08.476Z,20.23
2018-04-30T06:44:09.437Z,19.33
2018-04-30T06:46:10.742Z,18.77
2018-04-30T06:48:11.719Z,19.50
2018-04-30T06:50:12.699Z,18.63
2018-04-30T06:52:13.687Z,19.03
2018-04-30T06:54:14.657Z,17.80
2018-04-30T06:56:15.643Z,19.77
2018-04-30T06:58:16.982Z,18.90
2018-04-30T07:00:18.395Z,18.00
2018-04-30T07:02:19.689Z,18.40
2018-04-30T07:04:20.662Z,18.97
2018-04-30T07:06:21.649Z,18.30
2018-04-30T07:08:22.673Z,17.20
2018-04-30T07:10:24.038Z,19.43
2018-04-30T07:12:25.035Z,18.50
2018-04-30T07:14:26.034Z,20.20
2018-04-30T07:16:27.035Z,22.20
2018-04-30T07:18:28.407Z,19.47
2018-04-30T07:20:29.458Z,19.93
2018-04-30T07:22:30.454Z,18.33
2018-04-30T07:24:31.462Z,17.00
2018-04-30T07:26:32.431Z,19.97
2018-04-30T07:28:33.447Z,17.53
2018-04-30T07:30:35.052Z,17.30
2018-04-30T07:32:36.041Z,17.77
2018-04-30T07:34:37.031Z,16.63
2018-04-30T07:36:38.024Z,18.03
2018-04-30T07:38:39.001Z,18.03
2018-04-30T07:40:39.982Z,17.30
2018-04-30T07:42:40.950Z,17.07
2018-04-30T07:44:41.946Z,19.17
2018-04-30T07:46:42.939Z,17.87
2018-04-30T07:48:44.244Z,17.73
2018-04-30T07:50:45.289Z,16.97
2018-04-30T07:52:46.288Z,17.40
2018-04-30T07:54:47.916Z,17.00
2018-04-30T07:56:48.898Z,18.03
2018-04-30T07:58:49.842Z,18.50
2018-04-30T08:00:51.503Z,17.43
2018-04-30T08:02:52.461Z,16.77
2018-04-30T08:04:53.423Z,16.90
2018-04-30T08:06:55.004Z,18.97
2018-04-30T08:08:55.997Z,16.83
2018-04-30T08:10:57.415Z,18.90
2018-04-30T08:12:58.409Z,18.40
2018-04-30T08:14:59.836Z,18.20
2018-04-30T08:17:00.835Z,17.90
2018-04-30T08:19:01.817Z,18.83
2018-04-30T08:21:02.797Z,19.90
2018-04-30T08:23:03.812Z,18.90
2018-04-30T08:25:04.838Z,19.37
2018-04-30T08:27:05.843Z,18.00
2018-04-30T08:29:07.273Z,19.23
2018-04-30T08:31:08.638Z,18.80
2018-04-30T08:33:10.914Z,18.23
2018-04-30T08:35:11.907Z,19.53
2018-04-30T08:37:12.918Z,18.40
2018-04-30T08:39:14.014Z,18.37
2018-04-30T08:41:15.453Z,18.73
2018-04-30T08:43:16.801Z,20.60
2018-04-30T08:45:18.121Z,17.97
2018-04-30T08:47:19.490Z,17.90
2018-04-30T08:49:20.439Z,19.80
2018-04-30T08:51:21.501Z,19.30
2018-04-30T08:53:22.986Z,20.20
2018-04-30T08:55:23.910Z,19.67
2018-04-30T08:57:24.866Z,20.17
2018-04-30T08:59:26.207Z,19.23
2018-04-30T09:01:27.510Z,18.70
2018-04-30T09:03:28.470Z,19.90
2018-04-30T09:05:29.422Z,20.17
2018-04-30T09:07:30.743Z,20.20
2018-04-30T09:09:31.680Z,19.87
2018-04-30T09:11:32.637Z,20.27
2018-04-30T09:13:33.576Z,22.27
2018-04-30T09:15:34.682Z,21.47
2018-04-30T09:17:35.630Z,20.70
2018-04-30T09:19:36.954Z,21.50
2018-04-30T09:21:37.901Z,21.50
2018-04-30T09:23:39.230Z,20.80
2018-04-30T09:25:40.814Z,20.47
2018-04-30T09:27:41.758Z,20.80
2018-04-30T09:29:42.707Z,20.80
2018-04-30T09:31:43.642Z,19.60
2018-04-30T09:33:44.589Z,20.30
2018-04-30T09:35:45.550Z,19.97
2018-04-30T09:37:46.494Z,21.80
2018-04-30T09:39:47.441Z,21.60
2018-04-30T09:41:48.777Z,19.80
2018-04-30T09:43:50.122Z,22.13
2018-04-30T09:45:51.026Z,21.70
2018-04-30T09:47:51.975Z,23.00
2018-04-30T09:49:52.922Z,21.90
2018-04-30T09:51:54.223Z,21.50
2018-04-30T09:53:55.330Z,21.30
2018-04-30T09:55:56.277Z,22.87
2018-04-30T09:57:57.351Z,22.63
2018-04-30T09:59:58.179Z,23.10
2018-04-30T10:01:59.128Z,20.87
2018-04-30T10:04:00.085Z,22.03
2018-04-30T10:06:01.064Z,22.60
2018-04-30T10:08:02.010Z,20.80
2018-04-30T10:10:02.952Z,22.60
2018-04-30T10:12:03.918Z,21.10
2018-04-30T10:14:05.232Z,22.60
2018-04-30T10:16:06.178Z,23.40
2018-04-30T10:18:07.506Z,19.60
2018-04-30T10:20:08.446Z,22.73
2018-04-30T10:22:09.407Z,21.10
2018-04-30T10:24:10.726Z,21.97
2018-04-30T10:26:11.673Z,24.60
2018-04-30T10:28:13.016Z,20.30
2018-04-30T10:30:14.334Z,21.07
2018-04-30T10:32:15.286Z,22.23
2018-04-30T10:34:16.790Z,20.57
2018-04-30T10:36:17.749Z,21.10
2018-04-30T10:38:18.713Z,19.20
2018-04-30T10:40:20.043Z,19.10
2018-04-30T10:42:21.577Z,19.57
2018-04-30T10:44:22.534Z,21.27
2018-04-30T10:46:23.883Z,19.53
2018-04-30T10:48:25.208Z,18.70
2018-04-30T10:50:26.155Z,20.07
2018-04-30T10:52:27.477Z,20.70
2018-04-30T10:54:28.423Z,19.00
2018-04-30T10:56:29.357Z,20.07
2018-04-30T10:58:30.385Z,21.17
2018-04-30T11:00:31.326Z,20.50
2018-04-30T11:02:32.357Z,21.40
2018-04-30T11:04:33.599Z,21.90
2018-04-30T11:06:34.546Z,21.50
2018-04-30T11:08:35.865Z,23.37
2018-04-30T11:10:36.831Z,23.07
2018-04-30T11:12:38.146Z,21.70
2018-04-30T11:14:39.095Z,20.63
2018-04-30T11:16:40.414Z,22.47
2018-04-30T11:18:41.366Z,22.13
2018-04-30T11:20:42.314Z,20.43
2018-04-30T11:22:43.680Z,20.53
2018-04-30T11:24:44.624Z,19.97
2018-04-30T11:26:45.583Z,19.40
2018-04-30T11:28:46.547Z,20.87
2018-04-30T11:30:47.481Z,21.33
2018-04-30T11:32:48.433Z,20.43
2018-04-30T11:34:49.403Z,18.87
2018-04-30T11:36:50.363Z,19.77
2018-04-30T11:38:51.313Z,21.10
2018-04-30T11:40:52.650Z,21.67
2018-04-30T11:42:53.607Z,22.33
2018-04-30T11:44:54.901Z,22.60
2018-04-30T11:46:56.225Z,22.40
2018-04-30T11:48:57.198Z,22.77
2018-04-30T11:50:58.142Z,24.30
2018-04-30T11:52:59.079Z,21.50
2018-04-30T11:55:00.016Z,22.90
2018-04-30T11:57:01.334Z,22.07
2018-04-30T11:59:02.286Z,23.30
2018-04-30T12:01:03.246Z,21.40
2018-04-30T12:03:04.562Z,23.03
2018-04-30T12:05:05.556Z,21.80
2018-04-30T12:07:06.498Z,21.53
2018-04-30T12:09:07.443Z,19.43
2018-04-30T12:11:08.468Z,20.10
2018-04-30T12:13:09.337Z,21.17
2018-04-30T12:15:10.269Z,21.43
2018-04-30T12:17:11.215Z,21.27
2018-04-30T12:19:12.719Z,21.40
2018-04-30T12:21:13.732Z,21.63
2018-04-30T12:23:14.718Z,24.57
2018-04-30T12:25:15.694Z,23.07
2018-04-30T12:27:16.669Z,21.50
2018-04-30T12:29:17.622Z,23.37
2018-04-30T12:31:18.575Z,24.20
2018-04-30T12:33:19.898Z,22.17
2018-04-30T12:35:21.228Z,22.30
2018-04-30T12:37:22.186Z,23.03
2018-04-30T12:39:23.514Z,22.40
2018-04-30T12:41:24.458Z,23.43
2018-04-30T12:43:26.074Z,22.87
2018-04-30T12:45:27.027Z,23.43
2018-04-30T12:47:27.976Z,24.30
2018-04-30T12:49:29.376Z,22.90
2018-04-30T12:51:30.290Z,24.93
2018-04-30T12:53:31.235Z,23.20
2018-04-30T12:55:32.186Z,26.03
2018-04-30T12:57:33.572Z,23.80
2018-04-30T12:59:34.902Z,24.40
2018-04-30T13:01:35.929Z,21.73
2018-04-30T13:03:36.914Z,21.77
2018-04-30T13:05:37.919Z,17.37
2018-04-30T13:07:39.271Z,17.20
2018-04-30T13:09:40.742Z,16.80
2018-04-30T13:11:41.786Z,17.97
2018-04-30T13:13:49.120Z,17.77
2018-04-30T13:15:50.528Z,15.63
2018-04-30T13:17:51.509Z,16.60
2018-04-30T13:19:53.290Z,17.47
2018-04-30T13:21:54.362Z,18.77
2018-04-30T13:23:55.522Z,19.30
2018-04-30T13:25:56.732Z,18.53
2018-04-30T13:27:57.690Z,16.57
2018-04-30T13:29:59.461Z,16.00
2018-04-30T13:32:00.463Z,16.40
2018-04-30T13:34:01.401Z,15.93
2018-04-30T13:36:02.913Z,15.60
2018-04-30T13:38:03.998Z,15.03
2018-04-30T13:40:05.409Z,14.33
2018-04-30T13:42:06.425Z,14.40
2018-04-30T13:44:07.453Z,14.80
2018-04-30T13:46:08.438Z,15.90
2018-04-30T13:48:09.460Z,12.57
2018-04-30T13:50:10.470Z,13.67
2018-04-30T13:52:11.434Z,14.37
2018-04-30T13:54:12.395Z,14.13
2018-04-30T13:56:13.520Z,14.63
2018-04-30T13:58:14.500Z,13.13
2018-04-30T14:00:15.450Z,13.03
2018-04-30T14:02:16.410Z,12.07
2018-04-30T14:04:17.345Z,11.90
2018-04-30T14:06:18.306Z,12.67
2018-04-30T14:08:19.282Z,13.40
2018-04-30T14:10:20.279Z,11.57
2018-04-30T14:12:21.235Z,13.13
2018-04-30T14:14:22.683Z,13.57
2018-04-30T14:16:23.677Z,11.30
2018-04-30T14:18:24.626Z,12.33
2018-04-30T14:20:25.987Z,10.20
2018-04-30T14:22:27.412Z,10.63
2018-04-30T14:24:28.423Z,11.37
2018-04-30T14:26:29.408Z,9.60
2018-04-30T14:28:30.955Z,10.17
2018-04-30T14:30:32.303Z,9.77
2018-04-30T14:32:33.335Z,9.65
2018-04-30T14:34:34.765Z,7.97
2018-04-30T14:36:35.762Z,8.30
2018-04-30T14:38:36.782Z,8.60
2018-04-30T14:40:37.799Z,16.80
2018-04-30T14:42:38.782Z,6.57
2018-04-30T14:44:39.846Z,6.17
2018-04-30T14:46:40.903Z,5.60
2018-04-30T14:48:41.911Z,5.60
2018-04-30T14:50:42.888Z,5.63
2018-04-30T14:52:43.860Z,5.80
2018-04-30T14:54:44.889Z,6.13
2018-04-30T14:56:45.924Z,4.77
2018-04-30T14:58:46.895Z,4.73
2018-04-30T15:00:48.278Z,4.60
2018-04-30T15:02:49.265Z,3.80
2018-04-30T15:04:50.303Z,3.50
2018-04-30T15:06:51.731Z,3.63
2018-04-30T15:08:53.035Z,3.20
2018-04-30T15:10:54.135Z,3.30
2018-04-30T15:12:55.563Z,3.20
2018-04-30T15:14:56.591Z,3.20
2018-04-30T15:16:57.610Z,3.33
2018-04-30T15:18:58.632Z,3.30
2018-04-30T15:20:59.600Z,3.43
2018-04-30T15:23:00.579Z,3.00
2018-04-30T15:25:01.559Z,3.27
2018-04-30T15:27:02.567Z,3.33
2018-04-30T15:29:03.654Z,3.50
2018-04-30T15:31:05.124Z,3.23
2018-04-30T15:33:06.369Z,3.33
2018-04-30T15:35:07.404Z,3.20
2018-04-30T15:37:08.543Z,3.73
2018-04-30T15:39:09.718Z,3.87
2018-04-30T15:41:10.749Z,3.33
2018-04-30T15:43:11.713Z,3.40
2018-04-30T15:45:13.603Z,3.10
2018-04-30T15:47:15.012Z,3.20
2018-04-30T15:49:16.002Z,3.63
2018-04-30T15:51:17.026Z,3.33
2018-04-30T15:53:18.060Z,3.43
2018-04-30T15:55:19.078Z,3.00
2018-04-30T15:57:20.699Z,3.17
2018-04-30T15:59:21.726Z,3.10
2018-04-30T16:01:22.693Z,3.23
2018-04-30T16:03:24.032Z,3.10
2018-04-30T16:05:24.995Z,3.33
2018-04-30T16:07:25.988Z,3.20
2018-04-30T16:09:27.055Z,4.00
2018-04-30T16:11:28.396Z,3.67
2018-04-30T16:13:29.794Z,4.27
2018-04-30T16:15:30.863Z,3.20
2018-04-30T16:17:47.775Z,3.03
2018-04-30T16:19:48.912Z,2.97
2018-04-30T16:21:50.255Z,2.70
2018-04-30T16:23:51.826Z,3.03
2018-04-30T16:25:52.979Z,3.40
2018-04-30T16:27:53.991Z,3.27
2018-04-30T16:29:55.417Z,2.70
2018-04-30T16:31:56.454Z,2.50
2018-04-30T16:33:57.469Z,2.93
2018-04-30T16:35:58.709Z,2.57
2018-04-30T16:37:59.754Z,3.27
2018-04-30T16:40:00.821Z,2.60
2018-04-30T16:42:01.832Z,2.67
2018-04-30T16:44:02.798Z,2.50
2018-04-30T16:46:03.806Z,2.40
2018-04-30T16:48:04.754Z,3.80
2018-04-30T16:50:06.063Z,2.40
2018-04-30T16:52:07.039Z,3.30
2018-04-30T16:54:08.830Z,2.43
2018-04-30T16:56:09.943Z,2.80
2018-04-30T16:58:10.931Z,3.20
2018-04-30T17:00:11.900Z,3.00
2018-04-30T17:02:13.247Z,3.27
2018-04-30T17:04:14.661Z,3.53
2018-04-30T17:06:15.624Z,3.80
2018-04-30T17:08:16.965Z,3.20
2018-04-30T17:10:18.631Z,2.77
2018-04-30T17:12:20.102Z,2.40
2018-04-30T17:14:21.207Z,2.60
2018-04-30T17:16:22.179Z,2.40
2018-04-30T17:18:23.153Z,3.37
2018-04-30T17:20:27.564Z,2.70
2018-04-30T17:22:28.928Z,2.90
2018-04-30T17:24:30.324Z,2.80
2018-04-30T17:26:31.356Z,3.57
2018-04-30T17:28:32.309Z,2.70
2018-04-30T17:30:33.450Z,2.47
2018-04-30T17:32:34.604Z,3.03
2018-04-30T17:34:35.588Z,2.80
2018-04-30T17:36:36.590Z,2.50
2018-04-30T17:38:37.917Z,2.70
2018-04-30T17:40:39.255Z,2.80
2018-04-30T17:42:40.426Z,3.30
2018-04-30T17:44:41.518Z,2.87
2018-04-30T17:46:42.465Z,3.27
2018-04-30T17:48:43.435Z,3.20
2018-04-30T17:50:44.595Z,3.57
2018-04-30T17:52:45.612Z,2.40
2018-04-30T17:54:46.583Z,2.50
2018-04-30T17:56:47.552Z,2.83
2018-04-30T17:58:48.911Z,2.23
2018-04-30T18:00:49.842Z,2.87
2018-04-30T18:02:51.558Z,2.87
2018-04-30T18:04:52.512Z,2.60
2018-04-30T18:06:53.917Z,2.57
2018-04-30T18:08:55.074Z,2.70
2018-04-30T18:10:56.043Z,2.60
2018-04-30T18:12:57.371Z,2.63
2018-04-30T18:14:58.543Z,2.90
2018-04-30T18:16:59.534Z,2.60
2018-04-30T18:19:00.564Z,3.07
2018-04-30T18:21:01.794Z,3.10
2018-04-30T18:23:03.231Z,2.53
2018-04-30T18:25:04.174Z,2.30
2018-04-30T18:27:05.426Z,2.40
2018-04-30T18:29:06.423Z,2.70
2018-04-30T18:31:07.374Z,2.57
2018-04-30T18:33:08.344Z,3.40
2018-04-30T18:35:09.308Z,2.87
2018-04-30T18:37:10.282Z,3.03
2018-04-30T18:39:11.634Z,2.90
2018-04-30T18:41:12.611Z,2.47
2018-04-30T18:43:14.396Z,2.40
2018-04-30T18:45:15.356Z,5.97
2018-04-30T18:47:16.302Z,2.77
2018-04-30T18:49:17.759Z,2.80
2018-04-30T18:51:18.739Z,2.93
2018-04-30T18:53:19.740Z,2.60
2018-04-30T18:55:21.178Z,2.70
2018-04-30T18:57:22.548Z,2.40
2018-04-30T18:59:23.657Z,2.37
2018-04-30T19:01:24.918Z,3.90
2018-04-30T19:03:26.262Z,2.20
2018-04-30T19:05:27.251Z,2.30
2018-04-30T19:07:28.651Z,2.70
2018-04-30T19:09:29.614Z,2.60
2018-04-30T19:11:30.670Z,2.33
2018-04-30T19:13:31.678Z,2.53
2018-04-30T19:15:32.639Z,2.83
2018-04-30T19:17:33.844Z,2.70
2018-04-30T19:19:35.123Z,2.40
2018-04-30T19:21:36.075Z,2.70
2018-04-30T19:23:37.040Z,2.43
2018-04-30T19:25:38.004Z,2.37
2018-04-30T19:27:38.983Z,2.77
2018-04-30T19:29:39.940Z,2.87
2018-04-30T19:31:40.961Z,2.50
2018-04-30T19:33:41.933Z,2.40
2018-04-30T19:35:42.940Z,2.80
2018-04-30T19:37:44.446Z,2.40
2018-04-30T19:39:45.641Z,2.53
2018-04-30T19:41:46.631Z,2.80
2018-04-30T19:43:47.604Z,2.77
2018-04-30T19:45:48.575Z,2.50
2018-04-30T19:47:49.544Z,2.93
2018-04-30T19:49:50.496Z,2.87
2018-04-30T19:51:51.946Z,2.57
2018-04-30T19:53:53.264Z,2.40
2018-04-30T19:55:54.647Z,2.90
2018-04-30T19:57:55.689Z,3.27
2018-04-30T19:59:56.646Z,2.90
2018-04-30T20:01:57.624Z,2.80
2018-04-30T20:03:58.947Z,2.97
2018-04-30T20:05:59.935Z,2.90
2018-04-30T20:08:01.168Z,3.33
2018-04-30T20:10:02.160Z,2.90
2018-04-30T20:12:03.131Z,3.00
2018-04-30T20:14:04.487Z,3.40
2018-04-30T20:16:05.431Z,3.43
2018-04-30T20:18:07.919Z,3.43
2018-04-30T20:20:08.916Z,2.77
2018-04-30T20:22:09.904Z,2.70
2018-04-30T20:24:10.863Z,2.60
2018-04-30T20:26:12.227Z,2.50
2018-04-30T20:28:14.919Z,2.87
2018-04-30T20:30:16.015Z,3.00
2018-04-30T20:32:19.147Z,3.00
2018-04-30T20:34:20.149Z,3.00
2018-04-30T20:36:21.513Z,2.90
2018-04-30T20:38:22.534Z,2.80
2018-04-30T20:40:23.519Z,3.10
2018-04-30T20:42:24.487Z,2.80
2018-04-30T20:44:26.710Z,3.40
2018-04-30T20:46:27.690Z,3.00
2018-04-30T20:48:29.006Z,2.93
2018-04-30T20:50:30.036Z,3.33
2018-04-30T20:52:30.905Z,3.40
2018-04-30T20:54:32.258Z,2.93
2018-04-30T20:56:33.190Z,3.10
2018-04-30T20:58:34.528Z,2.90
2018-04-30T21:00:35.917Z,2.97
2018-04-30T21:02:36.874Z,2.80
2018-04-30T21:04:37.826Z,2.90
2018-04-30T21:06:39.250Z,3.13
2018-04-30T21:08:52.650Z,3.40
2018-04-30T21:10:53.597Z,3.13
2018-04-30T21:12:54.701Z,3.20
2018-04-30T21:14:55.689Z,2.67
2018-04-30T21:17:04.010Z,3.00
2018-04-30T21:19:04.958Z,3.30
2018-04-30T21:21:06.342Z,3.10
2018-04-30T21:23:07.280Z,2.67
2018-04-30T21:25:08.272Z,3.00
2018-04-30T21:27:09.891Z,3.10
2018-04-30T21:29:10.847Z,2.80
2018-04-30T21:31:12.179Z,2.80
2018-04-30T21:33:13.126Z,3.10
2018-04-30T21:35:14.450Z,3.00
2018-04-30T21:37:15.403Z,3.80
2018-04-30T21:39:16.733Z,3.90
2018-04-30T21:41:18.084Z,3.70
2018-04-30T21:43:19.423Z,4.70
2018-04-30T21:45:20.373Z,4.73
2018-04-30T21:47:21.830Z,4.47
2018-04-30T21:49:22.787Z,4.37
2018-04-30T21:51:23.758Z,4.63
2018-04-30T21:53:24.706Z,4.63
2018-04-30T21:55:26.577Z,4.23
2018-04-30T21:57:27.555Z,3.87
2018-04-30T21:59:28.497Z,4.50
2018-04-30T22:01:29.846Z,3.83
2018-04-30T22:03:31.222Z,4.07
2018-04-30T22:05:32.543Z,3.70
2018-04-30T22:07:33.505Z,3.40
2018-04-30T22:09:34.847Z,3.60
2018-04-30T22:11:36.170Z,3.33
2018-04-30T22:13:37.219Z,3.23
2018-04-30T22:15:38.554Z,3.37
2018-04-30T22:17:39.686Z,3.17
2018-04-30T22:19:40.638Z,3.50
2018-04-30T22:21:41.945Z,3.20
2018-04-30T22:23:42.938Z,3.13
2018-04-30T22:25:43.889Z,3.63
2018-04-30T22:27:44.825Z,3.00
2018-04-30T22:29:46.054Z,2.90
2018-04-30T22:31:47.205Z,2.80
2018-04-30T22:33:48.189Z,2.80
2018-04-30T22:35:49.510Z,2.63
2018-04-30T22:37:50.458Z,2.50
2018-04-30T22:39:51.467Z,2.70
2018-04-30T22:41:52.431Z,3.00
2018-04-30T22:43:53.369Z,2.60
2018-04-30T22:45:54.450Z,2.60
2018-04-30T22:47:55.398Z,2.90
2018-04-30T22:49:56.358Z,2.70
2018-04-30T22:51:57.302Z,2.67
2018-04-30T22:53:58.237Z,2.63
2018-04-30T22:55:59.165Z,2.67
2018-04-30T22:58:00.134Z,2.70
2018-04-30T23:00:01.103Z,3.00
2018-04-30T23:02:02.043Z,2.93
2018-04-30T23:04:02.995Z,2.53
2018-04-30T23:06:03.977Z,2.80
2018-04-30T23:08:04.910Z,2.63
2018-04-30T23:10:05.889Z,2.67
2018-04-30T23:12:06.842Z,2.53
2018-04-30T23:14:07.799Z,3.00
2018-04-30T23:16:09.121Z,2.87
2018-04-30T23:18:10.069Z,3.80
2018-04-30T23:20:11.395Z,3.90
2018-04-30T23:22:13.279Z,3.60
2018-04-30T23:24:14.218Z,3.73
2018-04-30T23:26:15.181Z,3.70
2018-04-30T23:28:16.146Z,3.13
2018-04-30T23:30:17.110Z,3.00
2018-04-30T23:32:18.598Z,3.30
2018-04-30T23:34:19.545Z,3.00
2018-04-30T23:36:20.494Z,2.90
2018-04-30T23:38:21.472Z,2.90
2018-04-30T23:40:22.414Z,2.80
2018-04-30T23:42:23.357Z,2.50
2018-04-30T23:44:24.315Z,2.70
2018-04-30T23:46:25.251Z,2.80
2018-04-30T23:48:26.510Z,2.47
2018-04-30T23:50:27.450Z,2.40
2018-04-30T23:52:28.393Z,2.27
2018-04-30T23:54:29.722Z,2.40
2018-04-30T23:56:30.680Z,3.13
2018-04-30T23:58:32.104Z,2.60
